sensor_id;sensor_type;location;lat;lon;timestamp;P1;durP1;ratioP1;P2;durP2;ratioP2
54795;SDS011;40693;43.884;20.340;2024-03-22T00:02:01;56.63;;;32.28;;
54795;SDS011;40693;43.884;20.340;2024-03-22T00:04:27;52.75;;;28.10;;
54795;SDS011;40693;43.884;20.340;2024-03-22T00:06:53;48.33;;;25.95;;
54795;SDS011;40693;43.884;20.340;2024-03-22T00:09:19;34.72;;;23.27;;
54795;SDS011;40693;43.884;20.340;2024-03-22T00:11:45;39.35;;;21.38;;
54795;SDS011;40693;43.884;20.340;2024-03-22T00:14:11;32.75;;;17.98;;
54795;SDS011;40693;43.884;20.340;2024-03-22T00:16:37;31.65;;;18.85;;
54795;SDS011;40693;43.884;20.340;2024-03-22T00:19:04;33.33;;;19.70;;
54795;SDS011;40693;43.884;20.340;2024-03-22T00:21:30;25.65;;;16.58;;
54795;SDS011;40693;43.884;20.340;2024-03-22T00:23:56;28.85;;;16.80;;
54795;SDS011;40693;43.884;20.340;2024-03-22T00:26:22;23.27;;;13.70;;
54795;SDS011;40693;43.884;20.340;2024-03-22T00:28:48;19.20;;;12.35;;
54795;SDS011;40693;43.884;20.340;2024-03-22T00:31:14;21.42;;;12.05;;
54795;SDS011;40693;43.884;20.340;2024-03-22T00:33:41;21.75;;;14.68;;
54795;SDS011;40693;43.884;20.340;2024-03-22T00:36:07;23.33;;;14.93;;
54795;SDS011;40693;43.884;20.340;2024-03-22T00:38:33;30.48;;;17.38;;
54795;SDS011;40693;43.884;20.340;2024-03-22T00:40:59;33.47;;;19.98;;
54795;SDS011;40693;43.884;20.340;2024-03-22T00:43:25;40.08;;;23.13;;
54795;SDS011;40693;43.884;20.340;2024-03-22T00:45:51;37.83;;;21.83;;
54795;SDS011;40693;43.884;20.340;2024-03-22T00:48:17;39.35;;;20.98;;
54795;SDS011;40693;43.884;20.340;2024-03-22T00:50:43;36.35;;;20.92;;
54795;SDS011;40693;43.884;20.340;2024-03-22T00:53:09;40.35;;;21.77;;
54795;SDS011;40693;43.884;20.340;2024-03-22T00:55:35;38.08;;;20.52;;
54795;SDS011;40693;43.884;20.340;2024-03-22T00:58:01;39.85;;;22.58;;
54795;SDS011;40693;43.884;20.340;2024-03-22T01:00:27;43.97;;;24.92;;
54795;SDS011;40693;43.884;20.340;2024-03-22T01:02:53;38.85;;;21.38;;
54795;SDS011;40693;43.884;20.340;2024-03-22T01:05:19;39.05;;;19.73;;
54795;SDS011;40693;43.884;20.340;2024-03-22T01:07:45;34.55;;;18.75;;
54795;SDS011;40693;43.884;20.340;2024-03-22T01:10:11;31.27;;;17.77;;
54795;SDS011;40693;43.884;20.340;2024-03-22T01:12:37;31.27;;;17.48;;
54795;SDS011;40693;43.884;20.340;2024-03-22T01:15:04;26.38;;;15.02;;
54795;SDS011;40693;43.884;20.340;2024-03-22T01:17:31;24.02;;;14.57;;
54795;SDS011;40693;43.884;20.340;2024-03-22T01:19:57;29.17;;;16.52;;
54795;SDS011;40693;43.884;20.340;2024-03-22T01:22:23;34.55;;;20.70;;
54795;SDS011;40693;43.884;20.340;2024-03-22T01:24:49;50.08;;;30.50;;
54795;SDS011;40693;43.884;20.340;2024-03-22T01:27:15;43.10;;;28.05;;
54795;SDS011;40693;43.884;20.340;2024-03-22T01:29:41;49.38;;;28.42;;
54795;SDS011;40693;43.884;20.340;2024-03-22T01:32:06;60.38;;;31.40;;
54795;SDS011;40693;43.884;20.340;2024-03-22T01:34:33;55.13;;;28.83;;
54795;SDS011;40693;43.884;20.340;2024-03-22T01:37:00;44.47;;;28.88;;
54795;SDS011;40693;43.884;20.340;2024-03-22T01:39:26;51.25;;;30.48;;
54795;SDS011;40693;43.884;20.340;2024-03-22T01:41:52;46.22;;;27.45;;
54795;SDS011;40693;43.884;20.340;2024-03-22T01:44:17;49.05;;;27.83;;
54795;SDS011;40693;43.884;20.340;2024-03-22T01:46:44;43.25;;;25.95;;
54795;SDS011;40693;43.884;20.340;2024-03-22T01:49:12;48.08;;;28.80;;
54795;SDS011;40693;43.884;20.340;2024-03-22T01:51:40;42.15;;;23.00;;
54795;SDS011;40693;43.884;20.340;2024-03-22T01:54:10;34.88;;;20.85;;
54795;SDS011;40693;43.884;20.340;2024-03-22T01:56:39;32.65;;;18.83;;
54795;SDS011;40693;43.884;20.340;2024-03-22T01:59:05;33.65;;;21.17;;
54795;SDS011;40693;43.884;20.340;2024-03-22T02:01:34;39.85;;;25.23;;
54795;SDS011;40693;43.884;20.340;2024-03-22T02:04:01;36.47;;;23.88;;
54795;SDS011;40693;43.884;20.340;2024-03-22T02:06:27;44.80;;;27.75;;
54795;SDS011;40693;43.884;20.340;2024-03-22T02:08:53;40.85;;;23.33;;
54795;SDS011;40693;43.884;20.340;2024-03-22T02:11:19;29.35;;;17.75;;
54795;SDS011;40693;43.884;20.340;2024-03-22T02:13:46;31.25;;;18.13;;
54795;SDS011;40693;43.884;20.340;2024-03-22T02:16:11;28.80;;;17.88;;
54795;SDS011;40693;43.884;20.340;2024-03-22T02:18:37;27.33;;;14.85;;
54795;SDS011;40693;43.884;20.340;2024-03-22T02:21:03;45.15;;;24.50;;
54795;SDS011;40693;43.884;20.340;2024-03-22T02:23:33;46.88;;;24.95;;
54795;SDS011;40693;43.884;20.340;2024-03-22T02:26:00;34.88;;;18.77;;
54795;SDS011;40693;43.884;20.340;2024-03-22T02:28:26;26.77;;;15.77;;
54795;SDS011;40693;43.884;20.340;2024-03-22T02:30:52;23.52;;;14.00;;
54795;SDS011;40693;43.884;20.340;2024-03-22T02:33:18;25.25;;;15.18;;
54795;SDS011;40693;43.884;20.340;2024-03-22T02:35:47;25.08;;;14.38;;
54795;SDS011;40693;43.884;20.340;2024-03-22T02:38:14;30.80;;;19.45;;
54795;SDS011;40693;43.884;20.340;2024-03-22T02:40:42;29.83;;;18.88;;
54795;SDS011;40693;43.884;20.340;2024-03-22T02:43:09;30.65;;;18.80;;
54795;SDS011;40693;43.884;20.340;2024-03-22T02:45:35;30.73;;;18.73;;
54795;SDS011;40693;43.884;20.340;2024-03-22T02:48:01;28.15;;;16.58;;
54795;SDS011;40693;43.884;20.340;2024-03-22T02:50:27;22.80;;;14.05;;
54795;SDS011;40693;43.884;20.340;2024-03-22T02:52:53;21.75;;;12.25;;
54795;SDS011;40693;43.884;20.340;2024-03-22T02:55:19;17.90;;;11.18;;
54795;SDS011;40693;43.884;20.340;2024-03-22T02:57:44;20.98;;;13.00;;
54795;SDS011;40693;43.884;20.340;2024-03-22T03:00:10;16.98;;;11.32;;
54795;SDS011;40693;43.884;20.340;2024-03-22T03:02:37;22.90;;;11.98;;
54795;SDS011;40693;43.884;20.340;2024-03-22T03:05:03;25.02;;;14.77;;
54795;SDS011;40693;43.884;20.340;2024-03-22T03:07:29;26.35;;;15.43;;
54795;SDS011;40693;43.884;20.340;2024-03-22T03:09:55;43.65;;;15.95;;
54795;SDS011;40693;43.884;20.340;2024-03-22T03:12:21;26.17;;;13.55;;
54795;SDS011;40693;43.884;20.340;2024-03-22T03:14:46;22.90;;;13.30;;
54795;SDS011;40693;43.884;20.340;2024-03-22T03:17:12;26.35;;;15.05;;
54795;SDS011;40693;43.884;20.340;2024-03-22T03:19:38;26.73;;;14.63;;
54795;SDS011;40693;43.884;20.340;2024-03-22T03:22:04;29.08;;;15.77;;
54795;SDS011;40693;43.884;20.340;2024-03-22T03:24:30;36.70;;;19.80;;
54795;SDS011;40693;43.884;20.340;2024-03-22T03:26:56;32.08;;;17.25;;
54795;SDS011;40693;43.884;20.340;2024-03-22T03:29:22;31.35;;;16.27;;
54795;SDS011;40693;43.884;20.340;2024-03-22T03:31:47;27.00;;;14.40;;
54795;SDS011;40693;43.884;20.340;2024-03-22T03:34:14;25.00;;;12.98;;
54795;SDS011;40693;43.884;20.340;2024-03-22T03:36:40;23.20;;;11.07;;
54795;SDS011;40693;43.884;20.340;2024-03-22T03:39:06;22.98;;;11.88;;
54795;SDS011;40693;43.884;20.340;2024-03-22T03:41:32;19.73;;;10.30;;
54795;SDS011;40693;43.884;20.340;2024-03-22T03:43:58;16.05;;;9.10;;
54795;SDS011;40693;43.884;20.340;2024-03-22T03:46:24;17.88;;;9.60;;
54795;SDS011;40693;43.884;20.340;2024-03-22T03:48:49;18.50;;;9.55;;
54795;SDS011;40693;43.884;20.340;2024-03-22T03:51:15;18.65;;;10.77;;
54795;SDS011;40693;43.884;20.340;2024-03-22T03:53:41;16.77;;;9.32;;
54795;SDS011;40693;43.884;20.340;2024-03-22T03:56:07;18.30;;;10.68;;
54795;SDS011;40693;43.884;20.340;2024-03-22T03:58:33;15.40;;;8.57;;
54795;SDS011;40693;43.884;20.340;2024-03-22T04:00:59;18.52;;;8.40;;
54795;SDS011;40693;43.884;20.340;2024-03-22T04:03:33;17.67;;;9.18;;
54795;SDS011;40693;43.884;20.340;2024-03-22T04:05:59;16.60;;;8.55;;
54795;SDS011;40693;43.884;20.340;2024-03-22T04:08:25;14.00;;;7.85;;
54795;SDS011;40693;43.884;20.340;2024-03-22T04:10:52;21.10;;;9.57;;
54795;SDS011;40693;43.884;20.340;2024-03-22T04:13:18;16.95;;;8.48;;
54795;SDS011;40693;43.884;20.340;2024-03-22T04:15:44;17.45;;;9.25;;
54795;SDS011;40693;43.884;20.340;2024-03-22T04:18:10;18.98;;;9.88;;
54795;SDS011;40693;43.884;20.340;2024-03-22T04:20:36;19.13;;;9.90;;
54795;SDS011;40693;43.884;20.340;2024-03-22T04:23:02;14.30;;;9.15;;
54795;SDS011;40693;43.884;20.340;2024-03-22T04:25:27;19.50;;;9.60;;
54795;SDS011;40693;43.884;20.340;2024-03-22T04:27:53;17.00;;;8.68;;
54795;SDS011;40693;43.884;20.340;2024-03-22T04:30:19;18.05;;;8.88;;
54795;SDS011;40693;43.884;20.340;2024-03-22T04:32:48;13.57;;;8.02;;
54795;SDS011;40693;43.884;20.340;2024-03-22T04:35:14;15.55;;;7.65;;
54795;SDS011;40693;43.884;20.340;2024-03-22T04:37:40;13.13;;;8.18;;
54795;SDS011;40693;43.884;20.340;2024-03-22T04:40:05;13.90;;;7.10;;
54795;SDS011;40693;43.884;20.340;2024-03-22T04:42:32;11.93;;;7.85;;
54795;SDS011;40693;43.884;20.340;2024-03-22T04:44:57;16.45;;;8.63;;
54795;SDS011;40693;43.884;20.340;2024-03-22T04:47:24;18.17;;;7.85;;
54795;SDS011;40693;43.884;20.340;2024-03-22T04:49:50;15.30;;;7.65;;
54795;SDS011;40693;43.884;20.340;2024-03-22T04:52:15;14.23;;;7.70;;
54795;SDS011;40693;43.884;20.340;2024-03-22T04:54:41;18.65;;;8.93;;
54795;SDS011;40693;43.884;20.340;2024-03-22T04:57:07;19.50;;;9.13;;
54795;SDS011;40693;43.884;20.340;2024-03-22T04:59:33;20.23;;;10.23;;
54795;SDS011;40693;43.884;20.340;2024-03-22T05:01:59;16.48;;;10.02;;
54795;SDS011;40693;43.884;20.340;2024-03-22T05:04:24;28.50;;;10.80;;
54795;SDS011;40693;43.884;20.340;2024-03-22T05:06:50;19.23;;;9.25;;
54795;SDS011;40693;43.884;20.340;2024-03-22T05:09:16;19.90;;;11.90;;
54795;SDS011;40693;43.884;20.340;2024-03-22T05:11:42;25.10;;;11.43;;
54795;SDS011;40693;43.884;20.340;2024-03-22T05:14:08;28.38;;;10.77;;
54795;SDS011;40693;43.884;20.340;2024-03-22T05:16:33;27.08;;;11.07;;
54795;SDS011;40693;43.884;20.340;2024-03-22T05:19:00;15.32;;;8.93;;
54795;SDS011;40693;43.884;20.340;2024-03-22T05:21:26;15.80;;;8.75;;
54795;SDS011;40693;43.884;20.340;2024-03-22T05:23:52;22.83;;;8.95;;
54795;SDS011;40693;43.884;20.340;2024-03-22T05:26:17;20.40;;;10.13;;
54795;SDS011;40693;43.884;20.340;2024-03-22T05:28:45;24.88;;;11.60;;
54795;SDS011;40693;43.884;20.340;2024-03-22T05:31:11;67.72;;;30.05;;
54795;SDS011;40693;43.884;20.340;2024-03-22T05:33:37;31.58;;;15.30;;
54795;SDS011;40693;43.884;20.340;2024-03-22T05:36:03;28.73;;;15.43;;
54795;SDS011;40693;43.884;20.340;2024-03-22T05:38:29;26.42;;;13.82;;
54795;SDS011;40693;43.884;20.340;2024-03-22T05:40:55;30.90;;;13.80;;
54795;SDS011;40693;43.884;20.340;2024-03-22T05:43:20;32.33;;;11.77;;
54795;SDS011;40693;43.884;20.340;2024-03-22T05:45:46;19.20;;;10.40;;
54795;SDS011;40693;43.884;20.340;2024-03-22T05:48:13;18.38;;;9.63;;
54795;SDS011;40693;43.884;20.340;2024-03-22T05:50:40;15.70;;;9.02;;
54795;SDS011;40693;43.884;20.340;2024-03-22T05:53:06;16.02;;;9.25;;
54795;SDS011;40693;43.884;20.340;2024-03-22T05:55:32;13.75;;;7.20;;
54795;SDS011;40693;43.884;20.340;2024-03-22T05:57:57;11.10;;;6.60;;
54795;SDS011;40693;43.884;20.340;2024-03-22T06:00:23;15.35;;;8.00;;
54795;SDS011;40693;43.884;20.340;2024-03-22T06:02:50;13.63;;;6.65;;
54795;SDS011;40693;43.884;20.340;2024-03-22T06:05:15;16.08;;;7.78;;
54795;SDS011;40693;43.884;20.340;2024-03-22T06:07:42;12.75;;;8.07;;
54795;SDS011;40693;43.884;20.340;2024-03-22T06:10:10;10.77;;;5.40;;
54795;SDS011;40693;43.884;20.340;2024-03-22T06:12:36;10.52;;;5.60;;
54795;SDS011;40693;43.884;20.340;2024-03-22T06:15:02;9.85;;;5.68;;
54795;SDS011;40693;43.884;20.340;2024-03-22T06:17:31;10.02;;;5.05;;
54795;SDS011;40693;43.884;20.340;2024-03-22T06:19:59;13.32;;;6.85;;
54795;SDS011;40693;43.884;20.340;2024-03-22T06:22:25;8.68;;;5.80;;
54795;SDS011;40693;43.884;20.340;2024-03-22T06:24:51;8.23;;;5.35;;
54795;SDS011;40693;43.884;20.340;2024-03-22T06:27:18;12.73;;;5.30;;
54795;SDS011;40693;43.884;20.340;2024-03-22T06:29:44;11.70;;;5.47;;
54795;SDS011;40693;43.884;20.340;2024-03-22T06:32:11;10.43;;;5.95;;
54795;SDS011;40693;43.884;20.340;2024-03-22T06:34:37;9.63;;;5.20;;
54795;SDS011;40693;43.884;20.340;2024-03-22T06:37:03;11.55;;;6.45;;
54795;SDS011;40693;43.884;20.340;2024-03-22T06:39:29;9.23;;;5.20;;
54795;SDS011;40693;43.884;20.340;2024-03-22T06:41:55;8.65;;;5.18;;
54795;SDS011;40693;43.884;20.340;2024-03-22T06:44:21;13.90;;;5.45;;
54795;SDS011;40693;43.884;20.340;2024-03-22T06:46:47;11.20;;;5.28;;
54795;SDS011;40693;43.884;20.340;2024-03-22T06:49:13;9.43;;;5.88;;
54795;SDS011;40693;43.884;20.340;2024-03-22T06:51:39;10.60;;;5.43;;
54795;SDS011;40693;43.884;20.340;2024-03-22T06:54:04;11.13;;;6.72;;
54795;SDS011;40693;43.884;20.340;2024-03-22T06:56:30;14.30;;;6.10;;
54795;SDS011;40693;43.884;20.340;2024-03-22T06:58:56;9.68;;;6.50;;
54795;SDS011;40693;43.884;20.340;2024-03-22T07:01:23;11.88;;;6.35;;
54795;SDS011;40693;43.884;20.340;2024-03-22T07:03:49;13.35;;;6.50;;
54795;SDS011;40693;43.884;20.340;2024-03-22T07:06:15;13.75;;;6.47;;
54795;SDS011;40693;43.884;20.340;2024-03-22T07:08:41;11.05;;;6.80;;
54795;SDS011;40693;43.884;20.340;2024-03-22T07:11:07;12.13;;;6.03;;
54795;SDS011;40693;43.884;20.340;2024-03-22T07:13:33;8.77;;;4.70;;
54795;SDS011;40693;43.884;20.340;2024-03-22T07:15:59;7.70;;;4.32;;
54795;SDS011;40693;43.884;20.340;2024-03-22T07:18:25;9.18;;;4.47;;
54795;SDS011;40693;43.884;20.340;2024-03-22T07:20:51;7.45;;;4.47;;
54795;SDS011;40693;43.884;20.340;2024-03-22T07:23:17;7.78;;;5.05;;
54795;SDS011;40693;43.884;20.340;2024-03-22T07:25:43;10.13;;;5.57;;
54795;SDS011;40693;43.884;20.340;2024-03-22T07:28:11;7.97;;;4.18;;
54795;SDS011;40693;43.884;20.340;2024-03-22T07:30:37;10.95;;;4.50;;
54795;SDS011;40693;43.884;20.340;2024-03-22T07:33:03;11.00;;;4.38;;
54795;SDS011;40693;43.884;20.340;2024-03-22T07:35:29;10.98;;;4.32;;
54795;SDS011;40693;43.884;20.340;2024-03-22T07:37:56;10.93;;;4.07;;
54795;SDS011;40693;43.884;20.340;2024-03-22T07:40:22;9.45;;;3.70;;
54795;SDS011;40693;43.884;20.340;2024-03-22T07:42:48;7.70;;;4.53;;
54795;SDS011;40693;43.884;20.340;2024-03-22T07:45:13;8.43;;;4.93;;
54795;SDS011;40693;43.884;20.340;2024-03-22T07:47:39;6.78;;;4.05;;
54795;SDS011;40693;43.884;20.340;2024-03-22T07:50:07;8.52;;;4.00;;
54795;SDS011;40693;43.884;20.340;2024-03-22T07:52:33;7.18;;;3.53;;
54795;SDS011;40693;43.884;20.340;2024-03-22T07:54:59;9.38;;;3.97;;
54795;SDS011;40693;43.884;20.340;2024-03-22T07:57:27;7.63;;;4.05;;
54795;SDS011;40693;43.884;20.340;2024-03-22T07:59:56;6.60;;;3.78;;
54795;SDS011;40693;43.884;20.340;2024-03-22T08:02:22;10.18;;;4.18;;
54795;SDS011;40693;43.884;20.340;2024-03-22T08:04:49;10.00;;;4.28;;
54795;SDS011;40693;43.884;20.340;2024-03-22T08:07:14;9.07;;;4.18;;
54795;SDS011;40693;43.884;20.340;2024-03-22T08:09:40;8.13;;;4.38;;
54795;SDS011;40693;43.884;20.340;2024-03-22T08:12:06;8.15;;;4.30;;
54795;SDS011;40693;43.884;20.340;2024-03-22T08:14:32;12.05;;;4.80;;
54795;SDS011;40693;43.884;20.340;2024-03-22T08:16:58;10.60;;;5.00;;
54795;SDS011;40693;43.884;20.340;2024-03-22T08:19:24;13.02;;;4.78;;
54795;SDS011;40693;43.884;20.340;2024-03-22T08:21:50;11.13;;;3.70;;
54795;SDS011;40693;43.884;20.340;2024-03-22T08:24:16;11.45;;;4.28;;
54795;SDS011;40693;43.884;20.340;2024-03-22T08:26:43;9.43;;;4.30;;
54795;SDS011;40693;43.884;20.340;2024-03-22T08:29:12;8.73;;;4.20;;
54795;SDS011;40693;43.884;20.340;2024-03-22T08:31:39;9.40;;;4.60;;
54795;SDS011;40693;43.884;20.340;2024-03-22T08:34:05;8.63;;;4.53;;
54795;SDS011;40693;43.884;20.340;2024-03-22T08:36:32;11.32;;;4.20;;
54795;SDS011;40693;43.884;20.340;2024-03-22T08:38:58;11.07;;;4.88;;
54795;SDS011;40693;43.884;20.340;2024-03-22T08:41:24;11.00;;;4.13;;
54795;SDS011;40693;43.884;20.340;2024-03-22T08:43:49;9.40;;;4.18;;
54795;SDS011;40693;43.884;20.340;2024-03-22T08:46:15;8.52;;;4.07;;
54795;SDS011;40693;43.884;20.340;2024-03-22T08:48:41;7.63;;;4.80;;
54795;SDS011;40693;43.884;20.340;2024-03-22T08:51:07;8.52;;;4.65;;
54795;SDS011;40693;43.884;20.340;2024-03-22T08:53:33;11.45;;;5.00;;
54795;SDS011;40693;43.884;20.340;2024-03-22T08:55:58;8.05;;;4.15;;
54795;SDS011;40693;43.884;20.340;2024-03-22T08:58:24;7.75;;;4.95;;
54795;SDS011;40693;43.884;20.340;2024-03-22T09:00:50;9.93;;;4.65;;
54795;SDS011;40693;43.884;20.340;2024-03-22T09:03:16;8.13;;;4.32;;
54795;SDS011;40693;43.884;20.340;2024-03-22T09:05:43;9.55;;;4.47;;
54795;SDS011;40693;43.884;20.340;2024-03-22T09:08:09;12.05;;;4.80;;
54795;SDS011;40693;43.884;20.340;2024-03-22T09:10:34;9.85;;;4.72;;
54795;SDS011;40693;43.884;20.340;2024-03-22T09:13:00;13.32;;;4.93;;
54795;SDS011;40693;43.884;20.340;2024-03-22T09:15:27;10.57;;;4.40;;
54795;SDS011;40693;43.884;20.340;2024-03-22T09:17:52;8.82;;;4.07;;
54795;SDS011;40693;43.884;20.340;2024-03-22T09:20:18;9.90;;;4.43;;
54795;SDS011;40693;43.884;20.340;2024-03-22T09:22:44;8.15;;;4.57;;
54795;SDS011;40693;43.884;20.340;2024-03-22T09:25:10;7.07;;;4.28;;
54795;SDS011;40693;43.884;20.340;2024-03-22T09:27:36;8.77;;;4.50;;
54795;SDS011;40693;43.884;20.340;2024-03-22T09:30:02;10.70;;;4.43;;
54795;SDS011;40693;43.884;20.340;2024-03-22T09:32:29;9.57;;;4.28;;
54795;SDS011;40693;43.884;20.340;2024-03-22T09:34:55;8.68;;;4.15;;
54795;SDS011;40693;43.884;20.340;2024-03-22T09:37:21;9.52;;;4.40;;
54795;SDS011;40693;43.884;20.340;2024-03-22T09:39:47;8.38;;;4.22;;
54795;SDS011;40693;43.884;20.340;2024-03-22T09:42:16;13.05;;;5.20;;
54795;SDS011;40693;43.884;20.340;2024-03-22T09:44:46;7.55;;;4.18;;
54795;SDS011;40693;43.884;20.340;2024-03-22T09:47:16;8.32;;;3.75;;
54795;SDS011;40693;43.884;20.340;2024-03-22T09:49:43;7.38;;;3.97;;
54795;SDS011;40693;43.884;20.340;2024-03-22T09:52:13;9.10;;;3.65;;
54795;SDS011;40693;43.884;20.340;2024-03-22T09:54:43;8.20;;;4.43;;
54795;SDS011;40693;43.884;20.340;2024-03-22T09:57:12;12.20;;;4.22;;
54795;SDS011;40693;43.884;20.340;2024-03-22T09:59:41;7.55;;;3.58;;
54795;SDS011;40693;43.884;20.340;2024-03-22T10:02:11;7.20;;;3.63;;
54795;SDS011;40693;43.884;20.340;2024-03-22T10:04:38;10.77;;;3.92;;
54795;SDS011;40693;43.884;20.340;2024-03-22T10:07:04;7.30;;;3.17;;
54795;SDS011;40693;43.884;20.340;2024-03-22T10:09:30;10.02;;;3.85;;
54795;SDS011;40693;43.884;20.340;2024-03-22T10:11:57;8.45;;;4.03;;
54795;SDS011;40693;43.884;20.340;2024-03-22T10:14:23;9.20;;;3.45;;
54795;SDS011;40693;43.884;20.340;2024-03-22T10:16:52;8.75;;;4.13;;
54795;SDS011;40693;43.884;20.340;2024-03-22T10:19:21;8.25;;;3.67;;
54795;SDS011;40693;43.884;20.340;2024-03-22T10:21:48;4.63;;;3.13;;
54795;SDS011;40693;43.884;20.340;2024-03-22T10:24:30;6.88;;;3.58;;
54795;SDS011;40693;43.884;20.340;2024-03-22T10:26:58;6.55;;;2.83;;
54795;SDS011;40693;43.884;20.340;2024-03-22T10:29:24;5.60;;;2.63;;
54795;SDS011;40693;43.884;20.340;2024-03-22T10:31:51;6.15;;;2.88;;
54795;SDS011;40693;43.884;20.340;2024-03-22T10:34:20;3.75;;;2.35;;
54795;SDS011;40693;43.884;20.340;2024-03-22T10:36:47;5.38;;;2.83;;
54795;SDS011;40693;43.884;20.340;2024-03-22T10:39:13;6.47;;;3.40;;
54795;SDS011;40693;43.884;20.340;2024-03-22T10:41:47;5.88;;;3.00;;
54795;SDS011;40693;43.884;20.340;2024-03-22T10:44:13;6.15;;;2.95;;
54795;SDS011;40693;43.884;20.340;2024-03-22T10:46:46;4.20;;;2.30;;
54795;SDS011;40693;43.884;20.340;2024-03-22T10:49:16;5.20;;;2.47;;
54795;SDS011;40693;43.884;20.340;2024-03-22T10:51:46;4.93;;;2.65;;
54795;SDS011;40693;43.884;20.340;2024-03-22T10:54:24;3.97;;;2.42;;
54795;SDS011;40693;43.884;20.340;2024-03-22T10:56:54;5.50;;;2.63;;
54795;SDS011;40693;43.884;20.340;2024-03-22T10:59:21;6.10;;;2.78;;
54795;SDS011;40693;43.884;20.340;2024-03-22T11:01:48;7.20;;;2.90;;
54795;SDS011;40693;43.884;20.340;2024-03-22T11:04:15;4.28;;;2.58;;
54795;SDS011;40693;43.884;20.340;2024-03-22T11:06:49;5.13;;;2.30;;
54795;SDS011;40693;43.884;20.340;2024-03-22T11:09:22;4.05;;;2.33;;
54795;SDS011;40693;43.884;20.340;2024-03-22T11:11:48;4.15;;;2.47;;
54795;SDS011;40693;43.884;20.340;2024-03-22T11:14:19;6.28;;;3.15;;
54795;SDS011;40693;43.884;20.340;2024-03-22T11:16:51;5.95;;;1.92;;
54795;SDS011;40693;43.884;20.340;2024-03-22T11:19:20;3.78;;;1.85;;
54795;SDS011;40693;43.884;20.340;2024-03-22T11:21:46;3.95;;;2.50;;
54795;SDS011;40693;43.884;20.340;2024-03-22T11:24:12;2.90;;;2.03;;
54795;SDS011;40693;43.884;20.340;2024-03-22T11:26:38;5.35;;;2.58;;
54795;SDS011;40693;43.884;20.340;2024-03-22T11:29:03;6.70;;;1.95;;
54795;SDS011;40693;43.884;20.340;2024-03-22T11:31:29;5.38;;;2.45;;
54795;SDS011;40693;43.884;20.340;2024-03-22T11:33:56;5.57;;;3.08;;
54795;SDS011;40693;43.884;20.340;2024-03-22T11:36:22;7.28;;;3.13;;
54795;SDS011;40693;43.884;20.340;2024-03-22T11:38:48;4.28;;;2.00;;
54795;SDS011;40693;43.884;20.340;2024-03-22T11:41:20;4.68;;;2.05;;
54795;SDS011;40693;43.884;20.340;2024-03-22T11:43:50;4.55;;;2.60;;
54795;SDS011;40693;43.884;20.340;2024-03-22T11:46:18;5.78;;;2.50;;
54795;SDS011;40693;43.884;20.340;2024-03-22T11:48:49;5.07;;;2.83;;
54795;SDS011;40693;43.884;20.340;2024-03-22T11:51:18;5.03;;;2.58;;
54795;SDS011;40693;43.884;20.340;2024-03-22T11:53:48;9.15;;;3.47;;
54795;SDS011;40693;43.884;20.340;2024-03-22T11:56:19;6.53;;;2.83;;
54795;SDS011;40693;43.884;20.340;2024-03-22T11:58:48;6.38;;;2.80;;
54795;SDS011;40693;43.884;20.340;2024-03-22T12:01:22;4.18;;;2.25;;
54795;SDS011;40693;43.884;20.340;2024-03-22T12:03:48;6.20;;;3.08;;
54795;SDS011;40693;43.884;20.340;2024-03-22T12:06:15;3.95;;;2.47;;
54795;SDS011;40693;43.884;20.340;2024-03-22T12:08:41;6.00;;;2.80;;
54795;SDS011;40693;43.884;20.340;2024-03-22T12:11:07;4.15;;;2.50;;
54795;SDS011;40693;43.884;20.340;2024-03-22T12:13:34;5.60;;;2.60;;
54795;SDS011;40693;43.884;20.340;2024-03-22T12:16:00;5.95;;;2.63;;
54795;SDS011;40693;43.884;20.340;2024-03-22T12:18:27;6.13;;;2.50;;
54795;SDS011;40693;43.884;20.340;2024-03-22T12:20:53;5.88;;;2.42;;
54795;SDS011;40693;43.884;20.340;2024-03-22T12:23:18;5.35;;;2.92;;
54795;SDS011;40693;43.884;20.340;2024-03-22T12:25:44;7.50;;;3.28;;
54795;SDS011;40693;43.884;20.340;2024-03-22T12:28:10;5.28;;;2.70;;
54795;SDS011;40693;43.884;20.340;2024-03-22T12:30:36;4.63;;;2.47;;
54795;SDS011;40693;43.884;20.340;2024-03-22T12:33:02;5.03;;;2.78;;
54795;SDS011;40693;43.884;20.340;2024-03-22T12:35:28;5.72;;;2.97;;
54795;SDS011;40693;43.884;20.340;2024-03-22T12:37:57;3.70;;;2.38;;
54795;SDS011;40693;43.884;20.340;2024-03-22T12:40:23;5.63;;;3.08;;
54795;SDS011;40693;43.884;20.340;2024-03-22T12:42:49;5.45;;;3.20;;
54795;SDS011;40693;43.884;20.340;2024-03-22T12:45:15;5.15;;;2.58;;
54795;SDS011;40693;43.884;20.340;2024-03-22T12:47:41;8.15;;;3.20;;
54795;SDS011;40693;43.884;20.340;2024-03-22T12:50:06;7.55;;;3.80;;
54795;SDS011;40693;43.884;20.340;2024-03-22T12:52:33;4.72;;;2.78;;
54795;SDS011;40693;43.884;20.340;2024-03-22T12:54:59;4.45;;;2.38;;
54795;SDS011;40693;43.884;20.340;2024-03-22T12:57:24;6.32;;;2.17;;
54795;SDS011;40693;43.884;20.340;2024-03-22T12:59:50;5.65;;;2.78;;
54795;SDS011;40693;43.884;20.340;2024-03-22T13:02:16;5.30;;;2.30;;
54795;SDS011;40693;43.884;20.340;2024-03-22T13:04:42;5.68;;;3.15;;
54795;SDS011;40693;43.884;20.340;2024-03-22T13:07:08;3.60;;;2.45;;
54795;SDS011;40693;43.884;20.340;2024-03-22T13:09:34;5.00;;;2.83;;
54795;SDS011;40693;43.884;20.340;2024-03-22T13:12:00;4.72;;;2.75;;
54795;SDS011;40693;43.884;20.340;2024-03-22T13:14:25;5.53;;;2.90;;
54795;SDS011;40693;43.884;20.340;2024-03-22T13:16:52;4.65;;;2.88;;
54795;SDS011;40693;43.884;20.340;2024-03-22T13:19:18;5.10;;;3.58;;
54795;SDS011;40693;43.884;20.340;2024-03-22T13:21:44;6.80;;;3.25;;
54795;SDS011;40693;43.884;20.340;2024-03-22T13:24:13;4.13;;;2.22;;
54795;SDS011;40693;43.884;20.340;2024-03-22T13:26:39;7.30;;;2.90;;
54795;SDS011;40693;43.884;20.340;2024-03-22T13:29:04;5.95;;;2.90;;
54795;SDS011;40693;43.884;20.340;2024-03-22T13:31:30;3.88;;;2.35;;
54795;SDS011;40693;43.884;20.340;2024-03-22T13:33:56;5.53;;;2.85;;
54795;SDS011;40693;43.884;20.340;2024-03-22T13:36:22;4.93;;;3.00;;
54795;SDS011;40693;43.884;20.340;2024-03-22T13:38:50;4.60;;;2.75;;
54795;SDS011;40693;43.884;20.340;2024-03-22T13:41:16;3.53;;;2.55;;
54795;SDS011;40693;43.884;20.340;2024-03-22T13:43:42;4.40;;;2.90;;
54795;SDS011;40693;43.884;20.340;2024-03-22T13:46:09;7.18;;;3.80;;
54795;SDS011;40693;43.884;20.340;2024-03-22T13:48:41;4.70;;;2.55;;
54795;SDS011;40693;43.884;20.340;2024-03-22T13:51:08;6.00;;;3.65;;
54795;SDS011;40693;43.884;20.340;2024-03-22T13:53:34;4.43;;;3.05;;
54795;SDS011;40693;43.884;20.340;2024-03-22T13:56:01;5.55;;;2.67;;
54795;SDS011;40693;43.884;20.340;2024-03-22T13:58:26;6.25;;;3.47;;
54795;SDS011;40693;43.884;20.340;2024-03-22T14:00:53;5.20;;;3.40;;
54795;SDS011;40693;43.884;20.340;2024-03-22T14:03:18;5.32;;;3.58;;
54795;SDS011;40693;43.884;20.340;2024-03-22T14:05:45;4.82;;;2.78;;
54795;SDS011;40693;43.884;20.340;2024-03-22T14:08:10;6.03;;;3.72;;
54795;SDS011;40693;43.884;20.340;2024-03-22T14:10:37;5.35;;;3.13;;
54795;SDS011;40693;43.884;20.340;2024-03-22T14:13:03;6.95;;;3.38;;
54795;SDS011;40693;43.884;20.340;2024-03-22T14:15:33;7.10;;;4.70;;
54795;SDS011;40693;43.884;20.340;2024-03-22T14:18:00;6.38;;;3.33;;
54795;SDS011;40693;43.884;20.340;2024-03-22T14:20:26;5.97;;;3.38;;